This is the latest recevied weather packets stored in our database for station/object KC5TIL. If no packets are shown the sender has not sent any weather packets the latest 10 day(s).
| Time | Temp. | Humidity | Pressure | Rain* | Wind** | Luminosity | Snow |
|---|---|---|---|---|---|---|---|
| 1777329023 | 32.78° C | 60% | 1007.8 hPa | 0 mm | - | 315 W/m² | - |
| 1777328721 | 32.78° C | 61% | 1008.1 hPa | 0 mm | - | 216 W/m² | - |
| 1777328418 | 32.22° C | 61% | 1008 hPa | 0 mm | - | 111 W/m² | - |
| 1777328116 | 33.33° C | 57% | 1008 hPa | 0 mm | - | 229 W/m² | - |
| 1777327815 | 35.56° C | 53% | 1007.8 hPa | 0 mm | - | 434 W/m² | - |
| 1777327511 | 36.11° C | 41% | 1007.9 hPa | 0 mm | - | 469 W/m² | - |
| 1777327209 | 35° C | 41% | 1007.8 hPa | 0 mm | - | 487 W/m² | - |
| 1777326906 | 35° C | 44% | 1007.9 hPa | 0 mm | - | 456 W/m² | - |
| 1777326603 | 34.44° C | 47% | 1007.6 hPa | 0 mm | - | 476 W/m² | - |
| 1777326300 | 34.44° C | 45% | 1008 hPa | 0 mm | - | 470 W/m² | - |
| 1777325997 | 35.56° C | 40% | 1008 hPa | 0 mm | - | 485 W/m² | - |
| 1777325696 | 35° C | 42% | 1008 hPa | 0 mm | - | 509 W/m² | - |
| 1777325394 | 34.44° C | 42% | 1008 hPa | 0 mm | - | 529 W/m² | - |
| 1777325091 | 35° C | 40% | 1008.1 hPa | 0 mm | - | 445 W/m² | - |
| 1777324787 | 35° C | 42% | 1008.1 hPa | 0 mm | - | 205 W/m² | - |
| 1777324485 | 35° C | 41% | 1008 hPa | 0 mm | - | 570 W/m² | - |
| 1777324182 | 35° C | 40% | 1008.4 hPa | 0 mm | - | 597 W/m² | - |
| 1777323880 | 35.56° C | 38% | 1008.1 hPa | 0 mm | - | 592 W/m² | - |
| 1777323577 | 35° C | 40% | 1008.2 hPa | 0 mm | - | 535 W/m² | - |
| 1777323274 | 35° C | 36% | 1008.3 hPa | 0 mm | - | 339 W/m² | - |
| 1777322972 | 35° C | 38% | 1008.3 hPa | 0 mm | - | 597 W/m² | - |
| 1777322670 | 35.56° C | 38% | 1008.2 hPa | 0 mm | - | 629 W/m² | - |
| 1777322367 | 35° C | 42% | 1008.2 hPa | 0 mm | - | 626 W/m² | - |
| 1777322064 | 35° C | 42% | 1008.1 hPa | 0 mm | - | 619 W/m² | - |
| 1777321760 | 35.56° C | 35% | 1008.4 hPa | 0 mm | - | 635 W/m² | - |
* Rain latest hour (hover to see other rain measurements)
** Current wind speed in m/s (hover to see current wind gust speed)